Time;durP1;ratioP1;P1;durP2;ratioP2;P2;SDS_P1;SDS_P2;PMS_P1;PMS_P2;Temp;Humidity;BMP_temperature;BMP_pressure;BME280_temperature;BME280_humidity;BME280_pressure;Samples;Min_cycle;Max_cycle;Signal;HPM_P1;HPM_P2
2022/06/13 00:03:25;;;;;;;8.82;2.80;;;;;;;17.59;45.02;100221.72;10505274;28;20133;-60
2022/06/13 00:08:27;;;;;;;8.82;2.75;;;;;;;17.50;44.74;100225.16;10508015;28;20338;-61
2022/06/13 00:13:29;;;;;;;7.63;2.78;;;;;;;17.35;45.56;100231.69;10511544;28;20056;-61
2022/06/13 00:18:31;;;;;;;8.52;2.40;;;;;;;17.32;45.80;100229.28;10512391;28;20109;-61
2022/06/13 00:23:36;;;;;;;9.50;2.78;;;;;;;17.38;45.93;100221.72;10510786;28;20150;-61
2022/06/13 00:28:37;;;;;;;9.25;2.45;;;;;;;17.33;46.06;100229.19;10511498;28;20044;-61
2022/06/13 00:33:39;;;;;;;7.72;2.67;;;;;;;17.26;46.34;100227.97;10512460;28;20537;-60
2022/06/13 00:38:41;;;;;;;10.18;2.70;;;;;;;17.12;46.47;100230.09;10510613;28;20140;-61
2022/06/13 00:43:45;;;;;;;7.32;2.55;;;;;;;17.11;46.56;100233.69;10512094;28;20048;-61
2022/06/13 00:48:57;;;;;;;7.90;2.50;;;;;;;16.90;47.03;100237.13;10511369;28;20054;-61
2022/06/13 00:53:59;;;;;;;6.80;2.28;;;;;;;16.76;47.81;100234.75;10512186;28;20151;-61
2022/06/13 00:59:11;;;;;;;6.95;2.42;;;;;;;16.61;47.33;100235.97;10511048;28;20483;-60
2022/06/13 01:04:13;;;;;;;7.75;2.20;;;;;;;16.51;47.88;100234.22;10511870;28;20131;-61
2022/06/13 01:09:17;;;;;;;6.13;2.42;;;;;;;16.35;48.44;100236.31;10510486;28;20052;-61
2022/06/13 01:14:56;;;;;;;7.38;2.60;;;;;;;16.07;49.38;100233.22;10510904;28;20047;-60
2022/06/13 01:20:17;;;;;;;8.10;2.80;;;;;;;16.00;49.75;100233.78;10493568;28;20131;-60
2022/06/13 01:25:36;;;;;;;9.60;2.75;;;;;;;15.87;49.75;100228.66;10511100;28;20059;-60
2022/06/13 01:30:54;;;;;;;7.10;2.63;;;;;;;15.83;50.28;100227.19;10510071;28;20052;-60
2022/06/13 01:36:10;;;;;;;7.82;2.67;;;;;;;15.71;50.49;100211.47;10510264;28;20793;-61
2022/06/13 01:41:35;;;;;;;5.55;2.50;;;;;;;15.61;50.48;100210.50;10506701;28;20138;-60
2022/06/13 01:46:46;;;;;;;8.98;2.67;;;;;;;15.40;50.93;100219.03;10509664;28;20412;-61
2022/06/13 01:51:59;;;;;;;9.32;3.00;;;;;;;15.34;50.85;100223.91;10509517;28;20058;-60
2022/06/13 01:57:28;;;;;;;8.95;2.97;;;;;;;15.24;52.05;100226.41;10507275;28;20386;-61
2022/06/13 02:03:08;;;;;;;6.82;2.85;;;;;;;15.10;52.18;100216.03;10512801;28;20377;-60
2022/06/13 02:08:16;;;;;;;10.93;3.28;;;;;;;15.06;51.72;100224.28;10515114;28;20139;-60
2022/06/13 02:13:35;;;;;;;8.05;2.95;;;;;;;14.93;52.40;100224.34;10516750;28;20084;-60
2022/06/13 02:18:57;;;;;;;7.07;2.80;;;;;;;14.84;52.16;100214.47;10516411;28;20050;-60
2022/06/13 02:24:03;;;;;;;8.10;2.85;;;;;;;14.91;52.38;100204.34;10515208;28;20048;-60
2022/06/13 02:29:18;;;;;;;8.45;2.63;;;;;;;14.78;52.86;100208.81;10515028;28;20131;-61
2022/06/13 02:34:25;;;;;;;12.00;3.03;;;;;;;14.69;52.84;100206.84;10516432;28;20062;-61
2022/06/13 02:39:36;;;;;;;8.50;2.70;;;;;;;14.56;53.40;100215.63;10514941;28;20146;-60
2022/06/13 02:44:41;;;;;;;9.43;2.85;;;;;;;14.35;53.72;100224.19;10516317;28;20117;-60
2022/06/13 02:49:51;;;;;;;9.05;3.30;;;;;;;14.30;53.76;100236.81;10512842;28;20087;-60
2022/06/13 02:55:01;;;;;;;9.13;2.90;;;;;;;14.28;53.74;100238.72;10515354;28;20055;-61
2022/06/13 03:00:10;;;;;;;8.50;2.87;;;;;;;14.22;53.92;100240.00;10515614;28;20043;-61
2022/06/13 03:05:17;;;;;;;7.22;2.60;;;;;;;14.15;53.63;100237.88;10510124;28;20131;-61
2022/06/13 03:10:23;;;;;;;6.22;2.70;;;;;;;14.06;53.88;100241.16;10508455;28;20160;-60
2022/06/13 03:16:17;;;;;;;8.27;2.92;;;;;;;13.84;54.61;100257.53;10507174;28;20113;-60
2022/06/13 03:21:29;;;;;;;8.80;2.58;;;;;;;13.82;54.38;100254.16;10419628;28;20052;-60
2022/06/13 03:26:41;;;;;;;5.65;2.65;;;;;;;13.92;54.36;100260.53;10493860;28;20140;-60
2022/06/13 03:31:48;;;;;;;7.88;2.90;;;;;;;13.98;54.32;100264.50;10507743;28;20475;-61
2022/06/13 03:37:06;;;;;;;12.90;3.08;;;;;;;14.02;54.12;100258.94;10507174;28;20052;-61
2022/06/13 03:42:18;;;;;;;8.50;2.60;;;;;;;14.09;53.62;100268.06;10514916;28;20076;-61
2022/06/13 03:47:30;;;;;;;7.25;2.60;;;;;;;14.13;53.64;100279.22;10515079;28;20891;-61
2022/06/13 03:52:36;;;;;;;9.27;3.20;;;;;;;14.21;53.21;100280.38;10516167;28;20093;-60
2022/06/13 03:57:48;;;;;;;7.60;2.70;;;;;;;14.20;53.29;100291.88;10512426;28;20139;-61
2022/06/13 04:02:53;;;;;;;9.23;2.90;;;;;;;14.24;52.70;100293.34;10513853;28;20047;-61
2022/06/13 04:07:55;;;;;;;11.50;2.92;;;;;;;14.80;51.85;100292.00;10512138;28;20056;-61
2022/06/13 04:13:00;;;;;;;6.85;2.85;;;;;;;17.32;47.09;100280.38;10513531;28;20139;-61
2022/06/13 04:18:39;;;;;;;8.25;2.85;;;;;;;19.97;40.29;100269.22;10513861;28;20075;-61
2022/06/13 04:23:57;;;;;;;8.00;2.97;;;;;;;22.12;35.71;100262.13;10513232;28;20167;-60
2022/06/13 04:29:23;;;;;;;7.68;2.72;;;;;;;23.69;33.64;100257.81;10507077;28;20496;-61
2022/06/13 04:34:32;;;;;;;7.82;2.92;;;;;;;24.81;31.77;100248.69;10505014;28;20711;-61
2022/06/13 04:39:37;;;;;;;7.47;2.73;;;;;;;26.28;30.34;100240.97;10509002;28;20087;-61
2022/06/13 04:44:42;;;;;;;7.63;2.75;;;;;;;26.84;28.81;100247.53;10509013;28;20548;-62
2022/06/13 04:49:59;;;;;;;7.78;2.63;;;;;;;26.78;28.28;100242.06;10501667;28;20056;-61
2022/06/13 04:55:27;;;;;;;5.85;2.40;;;;;;;27.65;27.11;100238.25;10510692;28;20135;-61
2022/06/13 05:00:31;;;;;;;4.95;2.58;;;;;;;28.50;26.00;100246.97;10506830;28;20058;-62
2022/06/13 05:05:46;;;;;;;5.97;2.72;;;;;;;29.36;24.50;100246.22;10512303;28;20048;-62
2022/06/13 05:10:52;;;;;;;8.13;2.50;;;;;;;30.06;23.97;100257.28;10509351;28;20144;-62
2022/06/13 05:16:09;;;;;;;8.05;2.88;;;;;;;30.25;22.93;100267.22;10511647;28;20088;-62
2022/06/13 05:21:23;;;;;;;9.02;3.05;;;;;;;30.46;22.83;100268.81;10508715;28;20040;-62
2022/06/13 05:26:29;;;;;;;7.22;2.40;;;;;;;31.00;22.80;100271.13;10513386;28;20158;-62
2022/06/13 05:31:31;;;;;;;8.18;2.65;;;;;;;27.71;26.00;100288.56;10511315;28;20484;-62
2022/06/13 05:36:33;;;;;;;11.23;2.72;;;;;;;25.39;28.94;100289.19;10510527;28;20357;-61
2022/06/13 05:41:35;;;;;;;7.60;2.65;;;;;;;23.31;32.29;100305.47;10511246;28;20036;-62
2022/06/13 05:46:38;;;;;;;11.23;2.70;;;;;;;22.06;34.38;100308.03;10508754;28;20052;-62
2022/06/13 05:51:41;;;;;;;7.72;2.78;;;;;;;21.27;35.45;100301.81;10508296;28;20133;-61
2022/06/13 05:56:43;;;;;;;9.93;3.33;;;;;;;20.81;36.55;100315.22;10508822;28;20433;-61
2022/06/13 06:01:45;;;;;;;8.68;3.05;;;;;;;20.32;37.49;100311.06;10509438;28;20227;-61
2022/06/13 06:06:47;;;;;;;9.20;3.10;;;;;;;20.25;37.25;100329.38;10508613;28;20047;-61
2022/06/13 06:11:50;;;;;;;9.25;3.10;;;;;;;20.07;37.72;100324.97;10509764;28;20040;-61
2022/06/13 06:16:51;;;;;;;7.68;2.58;;;;;;;20.22;37.75;100327.03;10508368;28;20456;-61
2022/06/13 06:21:53;;;;;;;9.23;3.00;;;;;;;20.55;37.26;100325.66;10507971;28;20147;-61
2022/06/13 06:26:56;;;;;;;8.85;2.70;;;;;;;20.66;37.18;100330.81;10506969;28;20127;-62
2022/06/13 06:31:58;;;;;;;10.30;3.00;;;;;;;21.06;36.77;100330.50;10509766;28;20126;-61
2022/06/13 06:36:59;;;;;;;11.70;3.20;;;;;;;21.44;36.02;100332.94;10508868;28;20054;-61
2022/06/13 06:42:01;;;;;;;11.20;3.10;;;;;;;21.97;34.98;100332.06;10507740;28;20501;-61
2022/06/13 06:47:06;;;;;;;9.43;3.25;;;;;;;23.05;33.27;100333.25;10509507;28;20043;-62
2022/06/13 06:52:07;;;;;;;9.52;3.30;;;;;;;23.30;32.88;100335.00;10508809;28;20085;-61
2022/06/13 07:02:30;;;;;;;15.32;3.42;;;;;;;21.81;35.06;100314.13;10508934;28;20058;-61
2022/06/13 07:07:31;;;;;;;8.60;2.80;;;;;;;21.71;35.41;100326.69;10508620;28;20138;-61
2022/06/13 07:12:33;;;;;;;8.40;3.10;;;;;;;21.62;35.68;100324.97;10507889;28;20574;-61
2022/06/13 07:17:35;;;;;;;10.77;3.03;;;;;;;22.00;35.43;100332.59;10514914;28;20136;-61
2022/06/13 07:22:44;;;;;;;8.57;3.08;;;;;;;24.09;33.27;100327.25;10515633;28;20130;-61
2022/06/13 07:27:46;;;;;;;10.35;3.33;;;;;;;26.28;29.45;100320.63;10514177;28;20196;-61
2022/06/13 07:32:48;;;;;;;11.25;3.30;;;;;;;26.71;28.86;100327.84;10514050;28;20319;-61
2022/06/13 07:43:30;;;;;;;8.45;3.10;;;;;;;25.45;28.69;100338.50;10514436;28;20141;-61
2022/06/13 07:48:33;;;;;;;9.63;2.88;;;;;;;24.74;29.95;100347.53;10513495;28;20225;-61
2022/06/13 07:53:35;;;;;;;10.20;3.33;;;;;;;24.22;30.75;100357.84;10512795;28;20055;-61
2022/06/13 07:58:58;;;;;;;9.18;3.10;;;;;;;24.10;31.14;100353.00;10513118;28;20051;-62
2022/06/13 08:04:00;;;;;;;8.60;3.00;;;;;;;24.01;31.43;100362.81;10513100;28;20032;-62
2022/06/13 08:09:02;;;;;;;10.23;3.00;;;;;;;23.67;31.42;100358.63;10510739;28;20040;-62
2022/06/13 08:14:06;;;;;;;9.57;2.95;;;;;;;23.64;31.73;100362.44;10511012;28;20143;-62
2022/06/13 08:19:08;;;;;;;9.52;2.80;;;;;;;24.59;30.14;100361.78;10513578;28;20492;-62
2022/06/13 08:24:10;;;;;;;8.98;2.95;;;;;;;24.24;29.68;100363.84;10511306;28;20139;-62
2022/06/13 08:29:15;;;;;;;9.07;2.88;;;;;;;25.55;28.06;100365.91;10510149;28;21251;-62
2022/06/13 08:34:17;;;;;;;11.10;2.90;;;;;;;26.63;26.70;100358.31;10511200;28;20052;-62
2022/06/13 08:39:19;;;;;;;10.23;2.90;;;;;;;26.00;27.45;100354.41;10512651;28;20135;-62
2022/06/13 08:44:45;;;;;;;8.50;2.45;;;;;;;25.89;26.85;100356.44;10512206;28;20123;-61
2022/06/13 08:50:01;;;;;;;10.23;3.35;;;;;;;24.99;28.35;100358.97;10511910;28;20201;-61
2022/06/13 08:55:18;;;;;;;8.23;2.90;;;;;;;26.29;26.55;100351.75;10510875;28;20476;-61
2022/06/13 09:00:23;;;;;;;8.45;2.85;;;;;;;26.17;26.56;100361.25;10511158;28;20040;-67
2022/06/13 09:05:34;;;;;;;10.15;2.90;;;;;;;26.06;27.09;100370.56;10510654;28;20127;-68
2022/06/13 09:11:03;;;;;;;8.63;2.85;;;;;;;26.63;26.66;100362.84;10491023;28;20060;-67
2022/06/13 09:16:32;;;;;;;12.35;3.22;;;;;;;26.66;26.38;100360.63;10506212;28;20135;-67
2022/06/13 09:21:46;;;;;;;10.70;3.05;;;;;;;24.47;29.71;100371.16;10505631;28;20086;-67
2022/06/13 09:26:52;;;;;;;7.18;2.85;;;;;;;23.84;30.42;100379.00;10509846;28;20438;-67
2022/06/13 09:32:00;;;;;;;9.40;2.83;;;;;;;23.76;30.58;100374.47;10509957;28;20135;-68
2022/06/13 09:37:15;;;;;;;11.48;3.03;;;;;;;24.21;30.22;100382.88;10507570;28;20500;-67
2022/06/13 09:42:22;;;;;;;8.50;2.80;;;;;;;25.96;28.44;100369.97;10494708;28;20143;-67
2022/06/13 09:48:07;;;;;;;9.40;2.83;;;;;;;26.49;26.89;100360.94;10508489;28;20178;-67
2022/06/13 09:53:41;;;;;;;9.40;3.25;;;;;;;26.88;26.42;100358.84;10505379;28;20857;-67
2022/06/13 09:58:46;;;;;;;9.73;3.15;;;;;;;25.34;27.81;100368.38;10507019;28;20075;-67
2022/06/13 10:03:54;;;;;;;11.52;3.10;;;;;;;24.51;29.10;100372.47;10498959;28;20554;-68
2022/06/13 10:09:27;;;;;;;9.10;2.95;;;;;;;24.10;29.95;100372.50;10486827;28;20048;-67
2022/06/13 10:14:48;;;;;;;10.82;2.90;;;;;;;24.01;29.46;100368.16;10503068;28;20052;-68
2022/06/13 10:20:03;;;;;;;9.48;3.00;;;;;;;24.63;28.61;100374.63;10498634;28;20474;-67
2022/06/13 10:25:27;;;;;;;8.45;2.70;;;;;;;25.66;27.66;100366.34;10497014;28;20076;-68
2022/06/13 10:30:35;;;;;;;8.65;2.95;;;;;;;24.73;28.61;100377.97;10499126;28;20184;-68
2022/06/13 10:35:49;;;;;;;9.38;3.28;;;;;;;24.28;29.32;100375.88;10493966;28;20142;-68
2022/06/13 10:40:51;;;;;;;10.52;3.17;;;;;;;24.30;29.64;100378.38;10490390;28;20059;-67
2022/06/13 10:45:53;;;;;;;8.90;2.80;;;;;;;24.00;29.85;100379.81;10498866;28;20138;-67
2022/06/13 10:50:58;;;;;;;9.85;3.38;;;;;;;23.71;30.20;100382.16;10503897;28;20110;-66
2022/06/13 10:56:03;;;;;;;7.40;2.83;;;;;;;23.94;30.06;100385.03;10498851;28;20043;-67
2022/06/13 11:01:10;;;;;;;9.10;3.08;;;;;;;23.39;30.73;100395.41;10502747;28;20419;-67
2022/06/13 11:06:23;;;;;;;10.10;3.10;;;;;;;23.13;29.49;100387.47;10500914;28;20071;-66
2022/06/13 11:11:35;;;;;;;9.48;3.03;;;;;;;23.50;28.73;100389.78;10501553;28;20139;-66
2022/06/13 11:27:42;;;;;;;9.50;3.15;;;;;;;23.51;30.18;100396.81;10503932;28;20153;-65
2022/06/13 11:33:16;;;;;;;10.25;3.17;;;;;;;23.82;29.49;100386.34;10500003;28;20067;-66
2022/06/13 11:38:23;;;;;;;12.60;3.08;;;;;;;24.29;29.04;100374.84;10466865;28;20048;-66
2022/06/13 11:43:31;;;;;;;11.35;3.40;;;;;;;23.80;29.15;100389.16;10493426;28;20435;-66
2022/06/13 11:48:34;;;;;;;9.10;3.28;;;;;;;23.71;29.11;100387.50;10496268;28;20044;-65
2022/06/13 11:53:39;;;;;;;9.98;3.50;;;;;;;24.09;28.83;100384.22;10492569;28;20127;-65
2022/06/13 11:58:48;;;;;;;13.65;3.40;;;;;;;23.98;29.05;100389.84;10499130;28;20139;-66
2022/06/13 12:04:15;;;;;;;12.68;3.42;;;;;;;23.89;28.94;100376.66;10510084;28;20407;-66
2022/06/13 12:09:23;;;;;;;10.23;3.58;;;;;;;23.88;29.18;100381.16;10509545;28;20064;-66
2022/06/13 12:14:26;;;;;;;10.90;3.25;;;;;;;23.62;28.57;100382.28;10502507;28;20484;-65
2022/06/13 12:19:31;;;;;;;8.95;3.10;;;;;;;23.22;28.99;100391.84;10506316;28;20127;-66
2022/06/13 12:25:10;;;;;;;9.70;3.40;;;;;;;23.54;27.70;100384.94;10508230;28;20554;-65
2022/06/13 12:30:26;;;;;;;10.27;3.28;;;;;;;23.69;28.55;100384.16;10513384;28;20411;-65
2022/06/13 12:35:55;;;;;;;10.95;3.50;;;;;;;23.40;28.75;100375.72;10502838;28;20346;-65
2022/06/13 12:41:10;;;;;;;7.37;3.40;;;;;;;23.12;27.75;100385.81;10499187;28;20051;-66
2022/06/13 12:46:15;;;;;;;11.63;3.13;;;;;;;23.17;28.31;100385.31;10505038;28;20048;-66
2022/06/13 12:51:29;;;;;;;10.63;3.45;;;;;;;23.26;28.62;100385.19;10505431;28;20056;-65
2022/06/13 12:57:06;;;;;;;8.57;3.38;;;;;;;23.83;28.26;100380.84;10501684;28;20044;-66
2022/06/13 13:02:35;;;;;;;9.88;3.55;;;;;;;23.43;27.85;100380.78;10493593;28;20044;-65
2022/06/13 13:08:04;;;;;;;13.40;3.57;;;;;;;22.96;29.16;100390.25;10506181;28;20196;-65
2022/06/13 13:13:17;;;;;;;9.00;3.50;;;;;;;23.10;28.60;100390.47;10508097;28;20489;-65
2022/06/13 13:18:37;;;;;;;10.23;3.30;;;;;;;23.61;27.97;100385.97;10507270;28;20083;-65
2022/06/13 13:23:58;;;;;;;9.10;2.95;;;;;;;23.70;27.94;100383.16;10506412;28;20135;-66
2022/06/13 13:29:30;;;;;;;11.45;3.00;;;;;;;23.29;28.27;100386.69;10511776;28;20134;-65
2022/06/13 13:35:13;;;;;;;8.73;3.10;;;;;;;23.29;28.55;100382.19;10508365;28;20389;-67
2022/06/13 13:40:42;;;;;;;9.93;3.60;;;;;;;23.00;29.01;100388.94;10508567;28;20040;-66
2022/06/13 13:45:56;;;;;;;13.75;3.65;;;;;;;22.87;30.15;100391.19;10499527;28;20044;-66
2022/06/13 13:51:06;;;;;;;12.25;3.40;;;;;;;22.88;29.78;100399.03;10506123;28;20139;-67
2022/06/13 13:56:17;;;;;;;12.20;3.42;;;;;;;22.93;29.97;100407.41;10507510;28;20062;-66
2022/06/13 14:01:22;;;;;;;11.25;3.20;;;;;;;23.01;29.31;100409.25;10502725;28;20135;-67
2022/06/13 14:06:43;;;;;;;10.05;2.90;;;;;;;23.40;28.43;100405.09;10505216;28;20047;-67
2022/06/13 14:12:08;;;;;;;8.80;2.88;;;;;;;24.06;27.37;100394.38;10503640;28;20138;-67
2022/06/13 14:17:11;;;;;;;8.38;2.60;;;;;;;23.90;27.04;100384.50;10509166;28;20325;-66
2022/06/13 14:22:20;;;;;;;10.02;2.92;;;;;;;23.46;27.38;100391.13;10507056;28;20592;-66
2022/06/13 14:27:23;;;;;;;10.57;3.05;;;;;;;23.06;28.52;100386.47;10507515;28;20083;-67
2022/06/13 14:32:27;;;;;;;13.27;3.05;;;;;;;22.97;29.14;100381.22;10508149;28;21426;-66
2022/06/13 14:37:50;;;;;;;10.75;3.28;;;;;;;23.25;27.59;100388.00;10508158;28;20444;-66
2022/06/13 14:42:55;;;;;;;9.15;3.00;;;;;;;23.32;27.04;100381.03;10509037;28;20532;-67
2022/06/13 14:48:18;;;;;;;9.10;2.85;;;;;;;23.12;27.88;100387.63;10507543;28;20048;-66
2022/06/13 14:53:32;;;;;;;7.78;2.70;;;;;;;23.08;28.00;100392.47;10509124;28;20139;-66
2022/06/13 14:58:43;;;;;;;9.50;2.65;;;;;;;23.52;27.28;100401.13;10507791;28;20164;-67
2022/06/13 15:04:03;;;;;;;9.63;2.90;;;;;;;23.83;25.99;100375.50;10507142;28;20040;-67
2022/06/13 15:09:17;;;;;;;10.88;3.25;;;;;;;23.69;26.55;100377.97;10507270;28;20143;-66
2022/06/13 15:14:25;;;;;;;8.93;3.08;;;;;;;23.56;26.43;100378.44;10503712;28;20055;-67
2022/06/13 15:19:36;;;;;;;8.57;2.88;;;;;;;23.28;27.12;100380.53;10507331;28;20062;-66
2022/06/13 15:24:46;;;;;;;7.90;2.35;;;;;;;23.17;26.21;100371.97;10507574;28;20048;-66
2022/06/13 15:29:57;;;;;;;8.57;2.67;;;;;;;23.06;27.04;100382.94;10508242;28;20056;-67
2022/06/13 15:35:07;;;;;;;5.40;2.15;;;;;;;23.37;26.76;100374.19;10508033;28;20267;-67
2022/06/13 15:40:21;;;;;;;7.68;2.50;;;;;;;22.78;27.08;100376.16;10515182;28;20142;-66
2022/06/13 15:45:31;;;;;;;9.43;2.70;;;;;;;22.46;27.87;100376.75;10511569;28;20048;-66
2022/06/13 15:50:34;;;;;;;8.35;2.45;;;;;;;22.08;28.06;100387.78;10516830;28;20492;-67
2022/06/13 15:55:46;;;;;;;7.60;2.45;;;;;;;22.09;28.29;100394.81;10514841;28;20484;-67
2022/06/13 16:00:47;;;;;;;6.93;2.30;;;;;;;22.25;28.31;100382.44;10514816;28;20044;-67
2022/06/13 16:05:59;;;;;;;7.00;2.50;;;;;;;22.35;28.79;100382.34;10514705;28;20063;-66
2022/06/13 16:11:03;;;;;;;7.55;2.35;;;;;;;22.55;28.49;100394.47;10514347;28;20040;-66
2022/06/13 16:16:16;;;;;;;7.78;2.40;;;;;;;22.66;28.71;100389.72;10511838;28;20142;-66
2022/06/13 16:21:30;;;;;;;6.47;2.13;;;;;;;22.57;28.95;100390.66;10509775;28;20385;-67
2022/06/13 16:26:35;;;;;;;7.70;2.47;;;;;;;22.73;28.72;100379.28;10511659;28;20495;-67
2022/06/13 16:31:40;;;;;;;7.63;2.30;;;;;;;22.74;28.41;100372.94;10509448;28;20555;-67
2022/06/13 16:36:57;;;;;;;8.02;2.40;;;;;;;22.56;28.80;100380.13;10509756;28;20402;-67
2022/06/13 16:42:16;;;;;;;8.20;2.10;;;;;;;22.53;27.97;100378.66;10511949;28;20052;-67
2022/06/13 16:47:17;;;;;;;6.37;2.10;;;;;;;22.38;28.80;100385.53;10508286;28;20245;-67
2022/06/13 16:52:26;;;;;;;9.40;2.17;;;;;;;22.29;29.03;100374.97;10511637;28;20456;-67
2022/06/13 16:57:40;;;;;;;7.60;2.20;;;;;;;21.90;28.33;100391.25;10508897;28;20048;-67
2022/06/13 17:03:10;;;;;;;5.50;2.00;;;;;;;21.78;28.58;100397.81;10511012;28;20130;-67
2022/06/13 17:08:21;;;;;;;8.80;2.33;;;;;;;21.95;28.70;100396.13;10510141;28;20045;-70
2022/06/13 17:13:32;;;;;;;7.50;1.85;;;;;;;22.07;29.01;100397.59;10510790;28;20062;-65
2022/06/13 17:18:51;;;;;;;9.45;2.35;;;;;;;21.87;28.02;100404.06;10507211;28;20058;-66
2022/06/13 17:23:56;;;;;;;8.27;1.83;;;;;;;21.82;28.32;100399.19;10507025;28;20075;-66
2022/06/13 17:34:44;;;;;;;5.53;1.70;;;;;;;21.83;29.33;100408.00;10509146;28;20082;-66
2022/06/13 17:39:52;;;;;;;6.72;1.90;;;;;;;21.68;29.17;100401.56;10507825;28;20389;-66
2022/06/13 17:44:54;;;;;;;7.10;2.28;;;;;;;21.52;29.99;100406.69;10509433;28;20171;-66
2022/06/13 17:49:55;;;;;;;5.65;1.90;;;;;;;21.62;29.49;100410.97;10508900;28;20585;-66
2022/06/13 17:54:57;;;;;;;6.07;2.15;;;;;;;21.45;29.47;100414.44;10509407;28;20718;-66
2022/06/13 18:00:01;;;;;;;6.03;1.70;;;;;;;21.35;29.52;100421.66;10506697;28;20092;-66
2022/06/13 18:05:04;;;;;;;6.72;2.10;;;;;;;21.24;29.78;100420.97;10507318;28;20142;-66
2022/06/13 18:10:06;;;;;;;6.50;1.80;;;;;;;21.17;30.05;100414.56;10509856;28;20109;-66
2022/06/13 18:15:09;;;;;;;6.38;1.73;;;;;;;21.01;29.97;100417.84;10503136;28;20055;-66
2022/06/13 18:20:20;;;;;;;7.53;1.90;;;;;;;20.90;29.88;100420.72;10508599;28;20044;-60
2022/06/13 18:25:23;;;;;;;5.82;1.80;;;;;;;20.76;30.83;100426.50;10502593;28;20254;-61
2022/06/13 18:30:27;;;;;;;5.38;1.50;;;;;;;20.67;30.91;100435.31;10506244;28;20052;-61
2022/06/13 18:35:30;;;;;;;6.07;1.70;;;;;;;20.57;30.51;100426.50;10505615;28;20145;-61
2022/06/13 18:40:34;;;;;;;5.43;1.60;;;;;;;20.54;30.39;100432.94;10504749;28;20069;-61
2022/06/13 18:45:36;;;;;;;6.97;1.77;;;;;;;20.38;30.95;100423.91;10507500;28;20082;-61
2022/06/13 18:50:39;;;;;;;6.78;1.80;;;;;;;20.33;30.81;100432.28;10505419;28;20127;-61
2022/06/13 18:55:40;;;;;;;5.13;1.80;;;;;;;20.24;31.40;100425.16;10505475;28;20056;-61
2022/06/13 19:00:42;;;;;;;4.00;1.50;;;;;;;20.08;31.72;100427.53;10504941;28;20048;-61
2022/06/13 19:05:48;;;;;;;4.45;1.48;;;;;;;19.97;31.72;100438.31;10498744;28;20450;-61
2022/06/13 19:10:53;;;;;;;4.68;1.50;;;;;;;19.82;32.41;100437.03;10505487;28;20048;-61
2022/06/13 19:15:55;;;;;;;4.47;1.60;;;;;;;19.62;32.83;100445.91;10500967;28;20098;-61
2022/06/13 19:20:57;;;;;;;3.45;1.45;;;;;;;19.35;32.86;100446.53;10502847;28;20060;-61
2022/06/13 19:26:01;;;;;;;5.05;1.70;;;;;;;18.98;33.92;100443.56;10502461;28;20137;-61
2022/06/13 19:31:04;;;;;;;5.55;1.75;;;;;;;18.63;34.98;100448.41;10502100;28;20329;-61
2022/06/13 19:36:10;;;;;;;4.82;1.80;;;;;;;18.35;35.16;100457.00;10503028;28;20048;-61
2022/06/13 19:41:12;;;;;;;5.68;1.77;;;;;;;18.20;35.98;100463.59;10503398;28;20063;-61
2022/06/13 19:46:14;;;;;;;5.57;1.90;;;;;;;18.05;36.90;100470.09;10501650;28;20141;-61
2022/06/13 19:51:16;;;;;;;4.25;1.80;;;;;;;17.90;36.63;100485.41;10501322;28;20048;-61
2022/06/13 19:56:26;;;;;;;3.15;1.60;;;;;;;17.75;37.75;100484.03;10500127;28;20075;-61
2022/06/13 20:01:32;;;;;;;4.20;2.10;;;;;;;17.58;37.83;100490.66;10498419;28;20044;-61
2022/06/13 20:12:01;;;;;;;5.20;2.25;;;;;;;17.16;39.25;100515.16;10500512;28;20056;-60
2022/06/13 20:17:09;;;;;;;5.60;2.00;;;;;;;17.07;39.51;100521.16;10494082;28;20815;-61
2022/06/13 20:22:12;;;;;;;4.72;2.13;;;;;;;16.90;39.94;100525.09;10496724;28;20711;-64
2022/06/13 20:27:15;;;;;;;5.18;2.10;;;;;;;16.84;39.91;100522.94;10506580;28;20144;-61
2022/06/13 20:32:17;;;;;;;5.90;2.10;;;;;;;16.63;40.78;100526.38;10505142;28;20131;-61
2022/06/13 20:37:23;;;;;;;4.93;1.80;;;;;;;16.48;41.20;100536.28;10494382;28;20151;-64
2022/06/13 20:42:31;;;;;;;4.80;1.92;;;;;;;16.29;42.54;100537.69;10502690;28;20066;-62
2022/06/13 20:47:35;;;;;;;5.32;1.90;;;;;;;16.12;42.27;100546.88;10505830;28;20147;-61
2022/06/13 20:52:45;;;;;;;5.63;1.83;;;;;;;15.97;42.43;100547.97;10507445;28;20044;-62
2022/06/13 20:57:47;;;;;;;6.43;2.10;;;;;;;15.82;42.90;100546.44;10505606;28;20380;-62
2022/06/13 21:02:51;;;;;;;5.10;2.00;;;;;;;15.78;43.28;100548.44;10509729;28;20097;-62
2022/06/13 21:07:55;;;;;;;5.78;2.00;;;;;;;15.69;43.21;100556.19;10507120;28;20143;-61
2022/06/13 21:13:02;;;;;;;7.03;1.90;;;;;;;15.61;43.42;100558.53;10503524;28;20567;-62
2022/06/13 21:18:04;;;;;;;4.65;1.60;;;;;;;15.38;44.05;100557.47;10501829;28;20139;-62
2022/06/13 21:23:07;;;;;;;4.43;1.80;;;;;;;15.20;44.53;100561.38;10510021;28;20139;-62
2022/06/13 21:28:10;;;;;;;3.42;1.63;;;;;;;14.98;45.06;100563.78;10509637;28;20060;-61
2022/06/13 21:33:14;;;;;;;4.88;1.73;;;;;;;14.76;45.73;100558.28;10507767;28;20566;-61
2022/06/13 21:38:16;;;;;;;3.65;1.80;;;;;;;14.62;46.03;100560.97;10508296;28;20178;-62
2022/06/13 21:43:18;;;;;;;6.40;2.45;;;;;;;14.59;46.25;100572.56;10500769;28;20489;-62
2022/06/13 21:48:20;;;;;;;5.38;2.10;;;;;;;14.47;46.67;100573.34;10506345;28;20084;-61
2022/06/13 21:53:22;;;;;;;3.90;1.80;;;;;;;14.40;46.75;100574.66;10507028;28;20047;-63
2022/06/13 21:58:25;;;;;;;6.97;2.28;;;;;;;14.33;47.27;100581.28;10507272;28;20058;-60
2022/06/13 22:03:27;;;;;;;4.20;2.00;;;;;;;14.24;47.51;100579.25;10507282;28;20488;-60
2022/06/13 22:08:29;;;;;;;4.32;1.83;;;;;;;14.25;47.50;100588.81;10506432;28;20139;-62
2022/06/13 22:13:30;;;;;;;5.90;1.90;;;;;;;14.22;47.71;100587.25;10507441;28;20167;-61
2022/06/13 22:18:32;;;;;;;3.70;1.75;;;;;;;14.12;48.11;100587.94;10505227;28;20052;-61
2022/06/13 22:23:34;;;;;;;4.88;1.83;;;;;;;14.03;48.13;100588.50;10504289;28;20095;-61
2022/06/13 22:28:36;;;;;;;4.47;2.10;;;;;;;13.81;48.51;100588.16;10507345;28;20745;-60
2022/06/13 22:33:39;;;;;;;6.28;2.40;;;;;;;13.77;48.85;100590.16;10506612;28;20132;-61
2022/06/13 22:38:40;;;;;;;7.90;2.10;;;;;;;13.70;49.14;100597.56;10506371;28;20056;-62
2022/06/13 22:43:42;;;;;;;6.20;1.95;;;;;;;13.62;49.23;100593.72;10502916;28;20124;-61
2022/06/13 22:54:04;;;;;;;3.38;1.80;;;;;;;13.42;49.72;100599.31;10504171;28;20077;-61
2022/06/13 22:59:06;;;;;;;4.97;2.30;;;;;;;13.37;50.05;100598.78;10504647;28;20047;-62
2022/06/13 23:04:08;;;;;;;6.75;2.55;;;;;;;13.24;50.38;100608.31;10504053;28;20933;-62
2022/06/13 23:09:10;;;;;;;8.13;2.70;;;;;;;13.17;50.90;100601.75;10498577;28;20051;-62
2022/06/13 23:14:12;;;;;;;5.22;2.20;;;;;;;13.05;50.88;100600.69;10501568;28;20604;-62
2022/06/13 23:19:13;;;;;;;4.95;2.05;;;;;;;12.93;51.38;100604.88;10500893;28;20058;-62
2022/06/13 23:24:15;;;;;;;4.75;2.50;;;;;;;12.82;51.55;100603.84;10502326;28;20044;-61
2022/06/13 23:29:17;;;;;;;7.95;2.03;;;;;;;12.75;51.70;100597.25;10501607;28;20580;-61
2022/06/13 23:34:19;;;;;;;4.18;2.10;;;;;;;12.68;51.90;100611.66;10498824;28;20613;-62
2022/06/13 23:39:21;;;;;;;5.50;2.38;;;;;;;12.65;51.98;100603.97;10502679;28;20052;-61
2022/06/13 23:44:23;;;;;;;5.40;2.22;;;;;;;12.57;52.35;100601.78;10502669;28;20544;-62
2022/06/13 23:49:25;;;;;;;5.80;2.33;;;;;;;12.52;52.43;100603.81;10499058;28;20419;-62
2022/06/13 23:54:26;;;;;;;4.05;2.00;;;;;;;12.42;52.81;100607.88;10500048;28;20504;-61
2022/06/13 23:59:28;;;;;;;5.03;2.13;;;;;;;12.40;52.83;100598.41;10507428;28;20121;-61
